createdAt,value
2019-03-24T00:00:44.476Z,35.48
2019-03-24T00:03:11.923Z,33.88
2019-03-24T00:05:39.510Z,39.18
2019-03-24T00:08:07.251Z,38.85
2019-03-24T00:10:34.764Z,36.13
2019-03-24T00:13:02.332Z,39.25
2019-03-24T00:15:29.954Z,30.62
2019-03-24T00:17:57.568Z,41.42
2019-03-24T00:20:25.306Z,35.75
2019-03-24T00:22:52.984Z,39.70
2019-03-24T00:25:20.586Z,31.33
2019-03-24T00:27:48.205Z,34.83
2019-03-24T00:30:17.716Z,36.00
2019-03-24T00:32:45.185Z,33.15
2019-03-24T00:35:14.212Z,37.05
2019-03-24T00:37:41.680Z,33.92
2019-03-24T00:40:09.616Z,41.23
2019-03-24T00:42:37.168Z,34.70
2019-03-24T00:45:04.858Z,37.15
2019-03-24T00:47:32.335Z,36.95
2019-03-24T00:49:59.941Z,42.30
2019-03-24T00:52:27.644Z,38.95
2019-03-24T00:54:55.367Z,46.65
2019-03-24T00:57:22.954Z,43.60
2019-03-24T00:59:50.667Z,42.93
2019-03-24T01:02:18.545Z,40.40
2019-03-24T01:04:46.129Z,42.55
2019-03-24T01:07:13.728Z,44.08
2019-03-24T01:09:41.180Z,41.20
2019-03-24T01:12:08.740Z,44.58
2019-03-24T01:14:36.258Z,43.68
2019-03-24T01:17:03.788Z,42.27
2019-03-24T01:19:31.413Z,48.50
2019-03-24T01:21:58.984Z,56.88
2019-03-24T01:24:26.495Z,46.73
2019-03-24T01:26:54.097Z,44.55
2019-03-24T01:29:21.544Z,50.65
2019-03-24T01:31:49.008Z,48.13
2019-03-24T01:34:16.509Z,49.42
2019-03-24T01:36:44.000Z,52.10
2019-03-24T01:39:11.549Z,42.73
2019-03-24T01:41:39.248Z,49.58
2019-03-24T01:44:06.847Z,49.35
2019-03-24T01:46:34.305Z,47.93
2019-03-24T01:49:01.720Z,47.58
2019-03-24T01:51:29.349Z,51.77
2019-03-24T01:53:56.953Z,43.42
2019-03-24T01:56:24.493Z,46.02
2019-03-24T01:58:52.041Z,52.45
2019-03-24T02:01:19.627Z,48.63
2019-03-24T02:03:47.195Z,52.55
2019-03-24T02:06:15.602Z,49.67
2019-03-24T02:08:43.165Z,41.63
2019-03-24T02:11:10.614Z,42.10
2019-03-24T02:13:38.053Z,44.83
2019-03-24T02:16:09.556Z,52.83
2019-03-24T02:18:34.864Z,47.13
2019-03-24T02:21:02.382Z,57.03
2019-03-24T02:23:29.893Z,45.60
2019-03-24T02:25:57.525Z,58.78
2019-03-24T02:28:25.075Z,48.50
2019-03-24T02:30:52.651Z,52.48
2019-03-24T02:33:20.262Z,49.53
2019-03-24T02:35:47.911Z,43.92
2019-03-24T02:38:15.524Z,53.23
2019-03-24T02:40:42.960Z,50.48
2019-03-24T02:43:10.558Z,52.03
2019-03-24T02:45:38.077Z,52.17
2019-03-24T02:48:05.691Z,54.85
2019-03-24T02:50:33.174Z,51.42
2019-03-24T02:53:00.813Z,46.55
2019-03-24T02:55:28.397Z,49.30
2019-03-24T02:57:56.132Z,45.70
2019-03-24T03:00:23.790Z,44.15
2019-03-24T03:02:51.462Z,40.83
2019-03-24T03:05:19.079Z,44.60
2019-03-24T03:07:46.719Z,51.48
2019-03-24T03:10:14.687Z,47.23
2019-03-24T03:12:42.219Z,50.55
2019-03-24T03:15:10.050Z,53.15
2019-03-24T03:17:37.665Z,51.73
2019-03-24T03:20:06.711Z,58.10
2019-03-24T03:22:34.486Z,55.08
2019-03-24T03:25:02.227Z,64.27
2019-03-24T03:27:29.858Z,54.80
2019-03-24T03:29:57.416Z,53.25
2019-03-24T03:32:24.934Z,51.92
2019-03-24T03:34:52.547Z,43.92
2019-03-24T03:37:20.126Z,57.30
2019-03-24T03:39:47.723Z,47.43
2019-03-24T03:42:15.337Z,51.18
2019-03-24T03:44:42.833Z,51.10
2019-03-24T03:47:10.377Z,53.50
2019-03-24T03:49:38.031Z,54.15
2019-03-24T03:52:05.820Z,54.90
2019-03-24T03:54:33.410Z,62.20
2019-03-24T03:57:01.006Z,67.60
2019-03-24T03:59:28.673Z,55.58
2019-03-24T04:01:56.338Z,60.12
2019-03-24T04:04:24.065Z,60.15
2019-03-24T04:06:51.756Z,57.40
2019-03-24T04:09:19.394Z,67.30
2019-03-24T04:11:47.333Z,57.43
2019-03-24T04:14:14.914Z,61.95
2019-03-24T04:16:42.673Z,61.15
2019-03-24T04:19:10.234Z,58.20
2019-03-24T04:21:37.841Z,54.55
2019-03-24T04:24:05.430Z,55.50
2019-03-24T04:26:33.094Z,53.25
2019-03-24T04:29:00.694Z,55.03
2019-03-24T04:31:28.315Z,54.10
2019-03-24T04:33:55.897Z,46.83
2019-03-24T04:36:23.373Z,56.77
2019-03-24T04:38:50.899Z,53.35
2019-03-24T04:41:18.472Z,56.65
2019-03-24T04:43:45.945Z,58.00
2019-03-24T04:46:13.573Z,48.87
2019-03-24T04:48:41.154Z,50.20
2019-03-24T04:51:08.630Z,55.58
2019-03-24T04:53:36.181Z,51.95
2019-03-24T04:56:03.761Z,46.42
2019-03-24T04:58:31.346Z,55.38
2019-03-24T05:00:58.944Z,50.92
2019-03-24T05:03:26.513Z,45.15
2019-03-24T05:05:54.090Z,49.40
2019-03-24T05:08:22.402Z,51.55
2019-03-24T05:10:49.988Z,43.87
2019-03-24T05:13:17.516Z,47.80
2019-03-24T05:15:44.996Z,44.23
2019-03-24T05:18:15.567Z,45.67
2019-03-24T05:20:43.117Z,42.98
2019-03-24T05:23:10.729Z,46.73
2019-03-24T05:25:38.379Z,47.33
2019-03-24T05:28:05.850Z,47.48
2019-03-24T05:30:33.312Z,49.90
2019-03-24T05:33:00.959Z,41.53
2019-03-24T05:35:28.784Z,48.90
2019-03-24T05:37:56.344Z,44.03
2019-03-24T05:40:23.998Z,42.85
2019-03-24T05:42:51.520Z,48.02
2019-03-24T05:45:19.043Z,36.80
2019-03-24T05:47:46.663Z,47.75
2019-03-24T05:50:14.348Z,41.00
2019-03-24T05:52:41.872Z,40.78
2019-03-24T05:55:09.645Z,43.25
2019-03-24T05:57:37.297Z,39.73
2019-03-24T06:00:06.751Z,43.28
2019-03-24T06:02:34.244Z,45.20
2019-03-24T06:05:01.819Z,47.50
2019-03-24T06:07:29.527Z,43.15
2019-03-24T06:09:56.979Z,43.23
2019-03-24T06:12:24.467Z,48.02
2019-03-24T06:14:52.033Z,41.13
2019-03-24T06:17:19.510Z,39.98
2019-03-24T06:19:47.007Z,41.83
2019-03-24T06:22:14.638Z,46.88
2019-03-24T06:24:42.688Z,42.98
2019-03-24T06:27:10.434Z,38.50
2019-03-24T06:29:38.021Z,44.20
2019-03-24T06:32:06.321Z,34.75
2019-03-24T06:34:33.813Z,47.27
2019-03-24T06:37:01.336Z,44.75
2019-03-24T06:39:28.900Z,39.03
2019-03-24T06:41:56.490Z,45.38
2019-03-24T06:44:24.429Z,36.60
2019-03-24T06:46:52.202Z,43.95
2019-03-24T06:49:20.021Z,40.88
2019-03-24T06:51:47.599Z,39.78
2019-03-24T06:54:15.159Z,47.47
2019-03-24T06:56:42.778Z,44.05
2019-03-24T06:59:10.648Z,43.50
2019-03-24T07:01:38.268Z,42.60
2019-03-24T07:04:05.858Z,38.05
2019-03-24T07:06:34.807Z,47.08
2019-03-24T07:09:04.684Z,43.55
2019-03-24T07:11:32.367Z,43.40
2019-03-24T07:14:00.023Z,48.47
2019-03-24T07:16:27.620Z,46.17
2019-03-24T07:18:55.220Z,40.25
2019-03-24T07:21:22.864Z,36.93
2019-03-24T07:23:50.391Z,37.13
2019-03-24T07:26:19.111Z,36.17
2019-03-24T07:28:46.711Z,47.30
2019-03-24T07:31:14.377Z,44.80
2019-03-24T07:33:41.943Z,50.53
2019-03-24T07:36:09.687Z,47.70
2019-03-24T07:38:37.196Z,48.83
2019-03-24T07:41:04.820Z,55.37
2019-03-24T07:43:32.418Z,45.33
2019-03-24T07:46:00.966Z,47.17
2019-03-24T07:48:28.396Z,47.63
2019-03-24T07:50:55.888Z,49.60
2019-03-24T07:53:23.373Z,56.57
2019-03-24T07:55:51.114Z,53.40
2019-03-24T07:58:18.643Z,56.18
2019-03-24T08:00:46.092Z,53.03
2019-03-24T08:03:13.650Z,50.33
2019-03-24T08:05:41.280Z,50.40
2019-03-24T08:08:08.884Z,51.43
2019-03-24T08:10:36.424Z,47.43
2019-03-24T08:13:04.047Z,42.00
2019-03-24T08:15:31.600Z,43.87
2019-03-24T08:17:59.111Z,49.63
2019-03-24T08:20:26.722Z,48.43
2019-03-24T08:22:54.285Z,41.77
2019-03-24T08:25:21.926Z,42.70
2019-03-24T08:27:50.532Z,41.70
2019-03-24T08:30:50.761Z,38.77
2019-03-24T08:33:18.711Z,38.53
2019-03-24T08:35:46.244Z,42.20
2019-03-24T08:38:13.763Z,40.23
2019-03-24T08:40:41.277Z,41.53
2019-03-24T08:43:08.900Z,40.10
2019-03-24T08:45:36.393Z,39.17
2019-03-24T08:48:03.836Z,37.07
2019-03-24T08:50:31.432Z,39.00
2019-03-24T08:52:58.923Z,37.07
2019-03-24T08:55:26.349Z,37.93
2019-03-24T08:57:53.896Z,42.30
2019-03-24T09:00:30.111Z,42.43
2019-03-24T09:02:50.937Z,38.73
2019-03-24T09:05:18.556Z,41.40
2019-03-24T09:07:46.055Z,44.87
2019-03-24T09:10:13.645Z,48.07
2019-03-24T09:12:41.400Z,43.50
2019-03-24T09:15:09.078Z,46.57
2019-03-24T09:17:36.701Z,50.80
2019-03-24T09:20:05.121Z,48.80
2019-03-24T09:22:33.871Z,52.60
2019-03-24T09:25:02.389Z,53.07
2019-03-24T09:27:33.071Z,54.93
2019-03-24T09:30:01.061Z,50.07
2019-03-24T09:32:28.734Z,48.80
2019-03-24T09:34:56.390Z,53.77
2019-03-24T09:37:23.994Z,48.80
2019-03-24T09:39:51.547Z,48.97
2019-03-24T09:42:19.189Z,49.40
2019-03-24T09:44:46.721Z,49.27
2019-03-24T09:47:14.192Z,41.40
2019-03-24T09:49:41.783Z,45.63
2019-03-24T09:52:09.380Z,47.43
2019-03-24T09:54:36.867Z,46.37
2019-03-24T09:57:04.532Z,49.07
2019-03-24T09:59:32.277Z,49.50
2019-03-24T10:02:02.572Z,44.33
2019-03-24T10:04:30.328Z,47.67
2019-03-24T10:06:57.785Z,46.40
2019-03-24T10:09:25.432Z,44.40
2019-03-24T10:11:52.973Z,42.80
2019-03-24T10:14:20.571Z,47.30
2019-03-24T10:16:48.586Z,44.63
2019-03-24T10:19:16.172Z,34.10
2019-03-24T10:21:43.634Z,45.77
2019-03-24T10:24:11.173Z,40.10
2019-03-24T10:26:38.787Z,35.37
2019-03-24T10:29:06.284Z,41.90
2019-03-24T10:31:33.837Z,32.23
2019-03-24T10:34:01.497Z,42.03
2019-03-24T10:36:28.971Z,40.40
2019-03-24T10:38:56.437Z,37.23
2019-03-24T10:41:23.930Z,29.87
2019-03-24T10:43:51.488Z,37.00
2019-03-24T10:46:18.957Z,41.27
2019-03-24T10:48:46.575Z,31.53
2019-03-24T10:51:14.273Z,39.53
2019-03-24T10:53:41.927Z,41.70
2019-03-24T10:56:09.412Z,40.70
2019-03-24T10:58:37.044Z,35.27
2019-03-24T11:01:04.678Z,36.37
2019-03-24T11:03:32.322Z,34.80
2019-03-24T11:05:59.926Z,33.23
2019-03-24T11:08:27.561Z,34.50
2019-03-24T11:10:55.107Z,38.83
2019-03-24T11:13:22.852Z,33.33
2019-03-24T11:15:50.376Z,25.93
2019-03-24T11:18:17.971Z,31.13
2019-03-24T11:20:45.552Z,34.90
2019-03-24T11:23:13.077Z,37.50
2019-03-24T11:25:40.633Z,34.53
2019-03-24T11:28:08.328Z,38.53
2019-03-24T11:30:35.933Z,38.63
2019-03-24T11:33:03.512Z,39.87
2019-03-24T11:35:31.071Z,37.07
2019-03-24T11:37:58.675Z,33.23
2019-03-24T11:40:26.198Z,31.93
2019-03-24T11:42:53.764Z,38.70
2019-03-24T11:45:21.472Z,35.80
2019-03-24T11:47:49.405Z,35.20
2019-03-24T11:50:17.034Z,30.70
2019-03-24T11:52:44.646Z,31.10
2019-03-24T11:55:12.462Z,32.40
2019-03-24T11:57:40.155Z,27.40
2019-03-24T12:00:09.012Z,26.47
2019-03-24T12:02:39.478Z,32.93
2019-03-24T12:05:07.675Z,27.00
2019-03-24T12:07:35.336Z,32.80
2019-03-24T12:10:03.338Z,29.07
2019-03-24T12:12:31.033Z,29.57
2019-03-24T12:14:58.604Z,31.27
2019-03-24T12:17:26.183Z,32.93
2019-03-24T12:19:57.046Z,35.37
2019-03-24T12:22:23.407Z,30.10
2019-03-24T12:24:50.997Z,30.87
2019-03-24T12:27:18.784Z,28.27
2019-03-24T12:29:46.431Z,23.60
2019-03-24T12:32:15.592Z,24.40
2019-03-24T12:34:43.312Z,31.07
2019-03-24T12:37:11.151Z,26.97
2019-03-24T12:39:38.931Z,30.80
2019-03-24T12:42:07.088Z,27.33
2019-03-24T12:44:34.665Z,26.33
2019-03-24T12:47:02.421Z,24.47
2019-03-24T12:49:30.010Z,30.00
2019-03-24T12:51:58.252Z,29.17
2019-03-24T12:54:25.816Z,29.00
2019-03-24T12:56:53.373Z,27.90
2019-03-24T12:59:21.032Z,28.43
2019-03-24T13:01:48.780Z,28.53
2019-03-24T13:04:16.393Z,32.07
2019-03-24T13:06:44.041Z,26.60
2019-03-24T13:09:11.687Z,25.57
2019-03-24T13:11:39.553Z,25.70
2019-03-24T13:14:07.425Z,26.60
2019-03-24T13:16:35.174Z,27.17
2019-03-24T13:19:03.127Z,23.97
2019-03-24T13:21:30.916Z,24.57
2019-03-24T13:23:58.477Z,30.40
2019-03-24T13:26:26.031Z,29.03
2019-03-24T13:28:53.724Z,28.87
2019-03-24T13:31:21.338Z,27.40
2019-03-24T13:33:48.912Z,26.40
2019-03-24T13:36:16.504Z,25.10
2019-03-24T13:38:44.001Z,25.37
2019-03-24T13:41:11.702Z,27.23
2019-03-24T13:43:39.376Z,24.30
2019-03-24T13:46:07.117Z,20.50
2019-03-24T13:48:34.672Z,25.83
2019-03-24T13:51:03.093Z,24.07
2019-03-24T13:53:30.744Z,25.50
2019-03-24T13:55:58.821Z,27.73
2019-03-24T13:58:26.752Z,30.17
2019-03-24T14:00:55.029Z,32.97
2019-03-24T14:03:22.762Z,24.80
2019-03-24T14:05:50.620Z,27.00
2019-03-24T14:08:18.275Z,27.37
2019-03-24T14:10:46.052Z,24.30
2019-03-24T14:13:13.967Z,29.83
2019-03-24T14:15:41.956Z,25.73
2019-03-24T14:18:09.877Z,28.90
2019-03-24T14:20:43.212Z,22.20
2019-03-24T14:23:07.311Z,25.20
2019-03-24T14:25:34.912Z,27.97
2019-03-24T14:28:02.576Z,27.30
2019-03-24T14:30:44.166Z,25.67
2019-03-24T14:33:11.994Z,24.53
2019-03-24T14:35:40.172Z,23.53
2019-03-24T14:38:07.794Z,22.53
2019-03-24T14:40:35.565Z,27.50
2019-03-24T14:43:03.613Z,22.40
2019-03-24T14:45:31.500Z,22.20
2019-03-24T14:48:00.217Z,23.00
2019-03-24T14:50:28.161Z,22.03
2019-03-24T14:52:56.192Z,21.80
2019-03-24T14:55:23.926Z,19.13
2019-03-24T14:57:51.595Z,20.07
2019-03-24T15:00:28.576Z,18.20
2019-03-24T15:02:56.140Z,17.30
2019-03-24T15:05:23.724Z,20.10
2019-03-24T15:07:51.366Z,16.60
2019-03-24T15:10:19.131Z,18.40
2019-03-24T15:12:46.702Z,19.07
2019-03-24T15:15:14.292Z,17.47
2019-03-24T15:17:41.945Z,16.83
2019-03-24T15:20:09.526Z,18.63
2019-03-24T15:22:37.115Z,17.23
2019-03-24T15:25:04.788Z,19.53
2019-03-24T15:27:32.264Z,18.20
2019-03-24T15:30:00.350Z,17.73
2019-03-24T15:32:28.021Z,20.60
2019-03-24T15:34:55.629Z,18.67
2019-03-24T15:37:23.196Z,18.20
2019-03-24T15:39:50.744Z,14.70
2019-03-24T15:42:18.393Z,18.37
2019-03-24T15:44:45.986Z,18.07
2019-03-24T15:47:13.835Z,16.70
2019-03-24T15:49:41.411Z,13.00
2019-03-24T15:52:08.930Z,12.80
2019-03-24T15:54:36.464Z,14.17
2019-03-24T15:57:04.057Z,11.27
2019-03-24T15:59:32.170Z,12.80
2019-03-24T16:02:00.120Z,13.67
2019-03-24T16:04:27.862Z,13.40
2019-03-24T16:06:55.580Z,15.40
2019-03-24T16:09:23.288Z,14.13
2019-03-24T16:11:51.106Z,11.10
2019-03-24T16:14:18.888Z,11.67
2019-03-24T16:16:46.511Z,14.40
2019-03-24T16:19:14.231Z,13.27
2019-03-24T16:21:41.857Z,11.57
2019-03-24T16:24:09.474Z,24.40
2019-03-24T16:26:37.133Z,10.10
2019-03-24T16:29:04.622Z,11.20
2019-03-24T16:31:32.198Z,11.50
2019-03-24T16:33:59.705Z,10.67
2019-03-24T16:36:27.326Z,12.90
2019-03-24T16:39:03.140Z,10.60
2019-03-24T16:41:24.506Z,10.07
2019-03-24T16:43:52.669Z,10.13
2019-03-24T16:46:20.237Z,11.33
2019-03-24T16:48:47.901Z,9.50
2019-03-24T16:51:15.754Z,11.40
2019-03-24T16:53:44.726Z,11.50
2019-03-24T16:56:12.329Z,14.07
2019-03-24T16:58:39.987Z,13.20
2019-03-24T17:01:07.577Z,13.00
2019-03-24T17:03:35.537Z,11.10
2019-03-24T17:06:03.350Z,12.37
2019-03-24T17:08:31.110Z,12.33
2019-03-24T17:10:58.716Z,9.00
2019-03-24T17:13:26.360Z,9.60
2019-03-24T17:15:54.037Z,11.87
2019-03-24T17:18:21.763Z,11.17
2019-03-24T17:20:49.832Z,9.27
2019-03-24T17:23:17.552Z,11.53
2019-03-24T17:25:45.281Z,8.67
2019-03-24T17:28:12.997Z,17.07
2019-03-24T17:30:40.707Z,13.53
2019-03-24T17:33:09.055Z,11.37
2019-03-24T17:35:36.680Z,13.43
2019-03-24T17:38:04.497Z,21.57
2019-03-24T17:40:38.890Z,20.83
2019-03-24T17:43:02.754Z,24.87
2019-03-24T17:45:30.702Z,23.67
2019-03-24T17:47:58.801Z,23.60
2019-03-24T17:50:26.957Z,26.70
2019-03-24T17:52:54.882Z,23.00
2019-03-24T17:55:27.545Z,26.30
2019-03-24T17:57:52.764Z,23.43
2019-03-24T18:00:45.461Z,25.33
2019-03-24T18:03:13.097Z,29.87
2019-03-24T18:05:40.865Z,26.90
2019-03-24T18:08:09.437Z,24.77
2019-03-24T18:10:37.172Z,20.03
2019-03-24T18:13:04.850Z,23.90
2019-03-24T18:15:32.504Z,21.83
2019-03-24T18:17:59.984Z,26.83
2019-03-24T18:20:31.717Z,22.80
2019-03-24T18:22:59.443Z,20.40
2019-03-24T18:25:26.991Z,20.20
2019-03-24T18:27:54.695Z,23.60
2019-03-24T18:30:22.753Z,24.77
2019-03-24T18:32:50.436Z,19.33
2019-03-24T18:35:18.274Z,27.73
2019-03-24T18:37:46.282Z,22.70
2019-03-24T18:40:15.083Z,26.17
2019-03-24T18:42:42.789Z,23.77
2019-03-24T18:45:10.978Z,30.13
2019-03-24T18:47:39.432Z,20.63
2019-03-24T18:50:07.651Z,22.83
2019-03-24T18:52:35.286Z,20.27
2019-03-24T18:55:03.793Z,27.83
2019-03-24T18:57:31.726Z,21.60
2019-03-24T18:59:59.503Z,20.23
2019-03-24T19:02:27.327Z,19.97
2019-03-24T19:04:58.030Z,20.30
2019-03-24T19:07:25.802Z,18.93
2019-03-24T19:09:53.691Z,20.53
2019-03-24T19:12:21.713Z,25.10
2019-03-24T19:14:49.448Z,25.00
2019-03-24T19:17:17.207Z,17.65
2019-03-24T19:19:44.871Z,20.90
2019-03-24T19:22:12.582Z,27.77
2019-03-24T19:24:40.222Z,16.57
2019-03-24T19:27:07.940Z,22.90
2019-03-24T19:29:35.616Z,19.40
2019-03-24T19:32:03.294Z,21.63
2019-03-24T19:34:31.741Z,20.80
2019-03-24T19:36:59.856Z,16.65
2019-03-24T19:39:28.198Z,15.03
2019-03-24T19:41:55.989Z,13.20
2019-03-24T19:44:23.953Z,13.50
2019-03-24T19:46:51.931Z,14.60
2019-03-24T19:49:19.559Z,17.77
2019-03-24T19:51:47.543Z,19.90
2019-03-24T19:54:15.386Z,11.68
2019-03-24T19:56:43.174Z,13.45
2019-03-24T19:59:10.896Z,15.98
2019-03-24T20:01:38.811Z,17.07
2019-03-24T20:04:07.614Z,13.67
2019-03-24T20:06:35.420Z,15.45
2019-03-24T20:09:06.786Z,12.43
2019-03-24T20:11:34.646Z,14.58
2019-03-24T20:14:02.844Z,12.50
2019-03-24T20:16:30.892Z,10.43
2019-03-24T20:19:01.944Z,9.48
2019-03-24T20:21:30.346Z,13.20
2019-03-24T20:23:59.362Z,14.90
2019-03-24T20:26:27.498Z,11.05
2019-03-24T20:28:55.368Z,14.53
2019-03-24T20:31:23.147Z,13.60
2019-03-24T20:33:51.449Z,14.53
2019-03-24T20:36:19.156Z,11.22
2019-03-24T20:38:46.868Z,15.23
2019-03-24T20:41:14.578Z,13.15
2019-03-24T20:43:42.141Z,14.85
2019-03-24T20:46:09.972Z,10.72
2019-03-24T20:48:38.226Z,11.35
2019-03-24T20:51:05.879Z,13.32
2019-03-24T20:53:33.487Z,8.75
2019-03-24T20:56:01.162Z,10.23
2019-03-24T20:58:29.073Z,12.23
2019-03-24T21:00:56.715Z,11.35
2019-03-24T21:03:24.421Z,11.70
2019-03-24T21:05:54.613Z,6.03
2019-03-24T21:08:22.616Z,10.45
2019-03-24T21:10:50.126Z,16.62
2019-03-24T21:13:18.026Z,12.98
2019-03-24T21:15:45.707Z,11.43
2019-03-24T21:18:13.202Z,10.65
2019-03-24T21:20:40.969Z,10.20
2019-03-24T21:23:09.522Z,10.88
2019-03-24T21:25:37.108Z,11.93
2019-03-24T21:28:04.684Z,11.88
2019-03-24T21:30:35.644Z,19.70
2019-03-24T21:33:04.014Z,16.50
2019-03-24T21:35:31.916Z,16.60
2019-03-24T21:37:59.472Z,16.52
2019-03-24T21:40:27.165Z,10.65
2019-03-24T21:42:55.019Z,14.20
2019-03-24T21:45:22.635Z,17.90
2019-03-24T21:47:52.120Z,16.12
2019-03-24T21:50:19.746Z,12.80
2019-03-24T21:52:48.389Z,14.60
2019-03-24T21:55:16.040Z,12.98
2019-03-24T21:57:43.591Z,11.93
2019-03-24T22:00:11.669Z,12.90
2019-03-24T22:02:39.580Z,14.43
2019-03-24T22:05:07.142Z,12.50
2019-03-24T22:07:36.216Z,11.78
2019-03-24T22:10:04.216Z,14.13
2019-03-24T22:12:32.930Z,10.15
2019-03-24T22:15:00.709Z,12.40
2019-03-24T22:17:29.852Z,14.75
2019-03-24T22:19:57.603Z,13.40
2019-03-24T22:22:25.310Z,13.15
2019-03-24T22:24:52.961Z,16.65
2019-03-24T22:27:20.726Z,14.85
2019-03-24T22:29:48.289Z,12.73
2019-03-24T22:32:15.923Z,16.85
2019-03-24T22:34:44.232Z,12.07
2019-03-24T22:37:16.024Z,12.03
2019-03-24T22:39:41.409Z,11.68
2019-03-24T22:42:09.277Z,9.98
2019-03-24T22:44:37.004Z,13.05
2019-03-24T22:47:04.757Z,12.43
2019-03-24T22:49:32.456Z,13.05
2019-03-24T22:52:07.256Z,13.00
2019-03-24T22:54:30.468Z,10.80
2019-03-24T22:56:59.863Z,12.98
2019-03-24T22:59:27.767Z,11.80
2019-03-24T23:01:59.640Z,14.40
2019-03-24T23:04:27.411Z,12.07
2019-03-24T23:06:55.365Z,12.93
2019-03-24T23:09:24.406Z,13.43
2019-03-24T23:11:55.034Z,11.50
2019-03-24T23:14:23.099Z,12.88
2019-03-24T23:16:52.590Z,11.95
2019-03-24T23:19:20.498Z,16.12
2019-03-24T23:21:48.188Z,12.43
2019-03-24T23:24:16.123Z,12.43
2019-03-24T23:26:43.830Z,10.28
2019-03-24T23:29:11.420Z,10.23
2019-03-24T23:31:39.078Z,9.05
2019-03-24T23:34:07.988Z,11.33
2019-03-24T23:36:35.541Z,7.22
2019-03-24T23:39:04.146Z,9.88
2019-03-24T23:41:31.839Z,6.28
2019-03-24T23:43:59.317Z,7.40
2019-03-24T23:46:26.853Z,4.58
2019-03-24T23:48:56.305Z,4.97
2019-03-24T23:51:24.072Z,4.62
2019-03-24T23:53:51.941Z,6.85
2019-03-24T23:56:19.498Z,4.12
2019-03-24T23:58:47.095Z,7.67
